createdAt,value
2018-05-09T00:01:26.040Z,100234
2018-05-09T00:06:18.499Z,100240
2018-05-09T00:11:09.825Z,100235
2018-05-09T00:16:02.094Z,100237
2018-05-09T00:20:53.582Z,100235
2018-05-09T00:25:45.097Z,100235
2018-05-09T00:30:36.597Z,100227
2018-05-09T00:35:28.075Z,100230
2018-05-09T00:40:19.555Z,100226
2018-05-09T00:45:11.852Z,100223
2018-05-09T00:50:03.452Z,100219
2018-05-09T00:54:54.916Z,100218
2018-05-09T00:59:46.454Z,100221
2018-05-09T01:04:37.947Z,100219
2018-05-09T01:09:29.501Z,100215
2018-05-09T01:14:21.017Z,100217
2018-05-09T01:19:13.279Z,100216
2018-05-09T01:24:04.793Z,100215
2018-05-09T01:28:57.067Z,100210
2018-05-09T01:33:48.574Z,100210
2018-05-09T01:38:40.823Z,100206
2018-05-09T01:43:33.058Z,100204
2018-05-09T01:48:24.544Z,100203
2018-05-09T01:53:16.045Z,100204
2018-05-09T01:58:07.575Z,100201
2018-05-09T02:02:59.915Z,100205
2018-05-09T02:07:51.419Z,100196
2018-05-09T02:12:42.918Z,100200
2018-05-09T02:17:34.432Z,100196
2018-05-09T02:22:27.551Z,100193
2018-05-09T02:27:19.050Z,100191
2018-05-09T02:32:11.282Z,100196
2018-05-09T02:37:03.584Z,100195
2018-05-09T02:41:55.106Z,100189
2018-05-09T02:46:46.617Z,100193
2018-05-09T02:51:38.892Z,100188
2018-05-09T02:56:30.362Z,100193
2018-05-09T03:01:22.619Z,100192
2018-05-09T03:06:14.131Z,100200
2018-05-09T03:11:05.791Z,100200
2018-05-09T03:15:57.291Z,100214
2018-05-09T03:20:48.807Z,100213
2018-05-09T03:25:40.291Z,100206
2018-05-09T03:30:31.777Z,100201
2018-05-09T03:35:23.260Z,100203
2018-05-09T03:40:14.761Z,100207
2018-05-09T03:45:06.268Z,100207
2018-05-09T03:49:57.777Z,100211
2018-05-09T03:54:50.042Z,100211
2018-05-09T03:59:42.271Z,100215
2018-05-09T04:04:52.155Z,100215
2018-05-09T04:09:56.266Z,100221
2018-05-09T04:14:48.719Z,100233
2018-05-09T04:19:40.203Z,100242
2018-05-09T04:24:31.670Z,100243
2018-05-09T04:29:23.251Z,100242
2018-05-09T04:34:14.744Z,100238
2018-05-09T04:39:06.246Z,100232
2018-05-09T04:43:57.741Z,100232
2018-05-09T04:48:51.035Z,100228
2018-05-09T04:53:42.549Z,100229
2018-05-09T04:58:35.003Z,100245
2018-05-09T05:03:27.257Z,100242
2018-05-09T05:08:19.542Z,100243
2018-05-09T05:13:11.056Z,100232
2018-05-09T05:18:03.366Z,100232
2018-05-09T05:22:54.851Z,100231
2018-05-09T05:27:46.367Z,100226
2018-05-09T05:32:38.672Z,100234
2018-05-09T05:37:30.162Z,100235
2018-05-09T05:42:21.676Z,100237
2018-05-09T05:47:13.921Z,100241
2018-05-09T05:52:06.283Z,100234
2018-05-09T05:56:58.554Z,100231
2018-05-09T06:01:50.061Z,100232
2018-05-09T06:06:42.304Z,100234
2018-05-09T06:11:33.796Z,100230
2018-05-09T06:16:25.350Z,100245
2018-05-09T06:21:16.836Z,100236
2018-05-09T06:26:08.317Z,100239
2018-05-09T06:30:59.881Z,100250
2018-05-09T06:35:51.874Z,100250
2018-05-09T06:40:43.384Z,100257
2018-05-09T06:45:34.890Z,100257
2018-05-09T06:50:27.139Z,100261
2018-05-09T06:55:19.363Z,100244
2018-05-09T07:00:10.866Z,100246
2018-05-09T07:05:02.383Z,100242
2018-05-09T07:09:53.869Z,100254
2018-05-09T07:14:45.376Z,100246
2018-05-09T07:19:36.873Z,100252
2018-05-09T07:24:29.111Z,100250
2018-05-09T07:29:21.355Z,100254
2018-05-09T07:34:12.859Z,100252
2018-05-09T07:39:05.390Z,100250
2018-05-09T07:43:56.906Z,100222
2018-05-09T07:48:48.443Z,100227
2018-05-09T07:53:39.961Z,100224
2018-05-09T07:58:32.219Z,100231
2018-05-09T08:03:24.440Z,100236
2018-05-09T08:08:15.963Z,100240
2018-05-09T08:13:07.479Z,100241
2018-05-09T08:17:59.032Z,100242
2018-05-09T08:22:50.571Z,100242
2018-05-09T08:27:42.114Z,100241
2018-05-09T08:32:33.651Z,100232
2018-05-09T08:37:25.523Z,100226
2018-05-09T08:42:18.250Z,100235
2018-05-09T08:47:09.893Z,100248
2018-05-09T08:52:01.847Z,100239
2018-05-09T08:56:53.554Z,100219
2018-05-09T09:01:45.088Z,100220
2018-05-09T09:06:36.641Z,100219
2018-05-09T09:11:28.186Z,100219
2018-05-09T09:16:20.433Z,100209
2018-05-09T09:21:11.967Z,100209
2018-05-09T09:26:03.501Z,100215
2018-05-09T09:30:56.724Z,100209
2018-05-09T09:35:48.232Z,100197
2018-05-09T09:40:40.485Z,100192
2018-05-09T09:45:32.795Z,100187
2018-05-09T09:50:25.029Z,100181
2018-05-09T09:55:16.667Z,100174
2018-05-09T10:00:08.166Z,100166
2018-05-09T10:04:59.650Z,100166
2018-05-09T10:09:51.138Z,100155
2018-05-09T10:14:42.716Z,100154
2018-05-09T10:19:35.098Z,100156
2018-05-09T10:24:27.348Z,100147
2018-05-09T10:29:18.939Z,100143
2018-05-09T10:34:10.500Z,100129
2018-05-09T10:39:02.119Z,100131
2018-05-09T10:43:53.633Z,100134
2018-05-09T10:48:45.169Z,100125
2018-05-09T10:53:36.687Z,100112
2018-05-09T10:58:29.357Z,100111
2018-05-09T11:03:20.866Z,100100
2018-05-09T11:08:13.228Z,100102
2018-05-09T11:13:05.562Z,100097
2018-05-09T11:17:57.811Z,100097
2018-05-09T11:22:50.069Z,100085
2018-05-09T11:27:42.143Z,100094
2018-05-09T11:32:34.521Z,100082
2018-05-09T11:37:26.838Z,100082
2018-05-09T11:42:18.423Z,100075
2018-05-09T11:47:10.686Z,100061
2018-05-09T11:52:02.202Z,100062
2018-05-09T11:56:53.710Z,100057
2018-05-09T12:01:45.207Z,100064
2018-05-09T12:06:37.444Z,100047
2018-05-09T12:11:28.947Z,100041
2018-05-09T12:16:20.481Z,100038
2018-05-09T12:21:11.989Z,100040
2018-05-09T12:26:03.511Z,100037
2018-05-09T12:30:55.062Z,100032
2018-05-09T12:35:46.599Z,100024
2018-05-09T12:40:38.101Z,100016
2018-05-09T12:45:30.348Z,100005
2018-05-09T12:50:22.589Z,100010
2018-05-09T12:55:14.828Z,100002
2018-05-09T13:00:06.331Z,99998
2018-05-09T13:04:57.842Z,99989
2018-05-09T13:09:49.343Z,99991
2018-05-09T13:14:41.570Z,99978
2018-05-09T13:19:33.068Z,99975
2018-05-09T13:24:24.684Z,99972
2018-05-09T13:29:16.144Z,99972
2018-05-09T13:34:07.677Z,99973
2018-05-09T13:38:59.201Z,99962
2018-05-09T13:43:50.693Z,99955
2018-05-09T13:48:42.181Z,99951
2018-05-09T13:53:33.664Z,99944
2018-05-09T13:58:25.879Z,99929
2018-05-09T14:03:17.386Z,99935
2018-05-09T14:08:08.911Z,99933
2018-05-09T14:13:00.392Z,99932
2018-05-09T14:17:51.911Z,99926
2018-05-09T14:22:43.442Z,99926
2018-05-09T14:27:34.941Z,99927
2018-05-09T14:32:26.437Z,99917
2018-05-09T14:37:18.389Z,99917
2018-05-09T14:42:10.650Z,99921
2018-05-09T14:47:02.917Z,99915
2018-05-09T14:51:54.410Z,99912
2018-05-09T14:56:45.900Z,99912
2018-05-09T15:01:37.388Z,99910
2018-05-09T15:06:28.889Z,99919
2018-05-09T15:11:20.401Z,99914
2018-05-09T15:16:11.881Z,99919
2018-05-09T15:21:03.400Z,99917
2018-05-09T15:25:54.910Z,99912
2018-05-09T15:30:46.390Z,99904
2018-05-09T15:35:38.640Z,99907
2018-05-09T15:40:30.146Z,99901
2018-05-09T15:45:21.672Z,99900
2018-05-09T15:50:13.312Z,99896
2018-05-09T15:55:04.710Z,99896
2018-05-09T15:59:56.232Z,99894
2018-05-09T16:04:47.741Z,99893
2018-05-09T16:09:39.268Z,99887
2018-05-09T16:14:30.752Z,99881
2018-05-09T16:19:22.260Z,99879
2018-05-09T16:24:14.503Z,99882
2018-05-09T16:29:06.785Z,99878
2018-05-09T16:33:58.300Z,99882
2018-05-09T16:38:50.571Z,99887
2018-05-09T16:43:42.077Z,99878
2018-05-09T16:48:34.340Z,99881
2018-05-09T16:53:26.635Z,99879
2018-05-09T16:58:18.199Z,99880
2018-05-09T17:03:09.780Z,99877
2018-05-09T17:08:01.258Z,99877
2018-05-09T17:12:52.814Z,99877
2018-05-09T17:17:45.093Z,99876
2018-05-09T17:22:36.603Z,99877
2018-05-09T17:27:28.852Z,99875
2018-05-09T17:32:21.100Z,99876
2018-05-09T17:37:13.368Z,99872
2018-05-09T17:42:04.891Z,99870
2018-05-09T17:46:57.143Z,99874
2018-05-09T17:51:49.391Z,99876
2018-05-09T17:56:41.615Z,99877
2018-05-09T18:01:33.116Z,99877
2018-05-09T18:06:24.657Z,99871
2018-05-09T18:11:16.156Z,99875
2018-05-09T18:16:08.397Z,99871
2018-05-09T18:21:00.633Z,99867
2018-05-09T18:25:52.136Z,99868
2018-05-09T18:30:43.635Z,99875
2018-05-09T18:35:35.117Z,99874
2018-05-09T18:40:26.729Z,99877
2018-05-09T18:45:18.879Z,99877
2018-05-09T18:50:11.898Z,99882
2018-05-09T18:55:04.133Z,99886
2018-05-09T18:59:55.644Z,99884
2018-05-09T19:04:47.919Z,99896
2018-05-09T19:09:39.410Z,99893
2018-05-09T19:14:30.896Z,99896
2018-05-09T19:19:22.521Z,99898
2018-05-09T19:24:14.095Z,99896
2018-05-09T19:29:05.608Z,99897
2018-05-09T19:33:57.852Z,99897
2018-05-09T19:38:50.093Z,99892
2018-05-09T19:43:41.741Z,99893
2018-05-09T19:48:34.184Z,99897
2018-05-09T19:53:25.668Z,99902
2018-05-09T19:58:17.176Z,99912
2018-05-09T20:03:09.439Z,99915
2018-05-09T20:08:00.936Z,99915
2018-05-09T20:12:52.460Z,99914
2018-05-09T20:17:44.711Z,99916
2018-05-09T20:22:36.210Z,99911
2018-05-09T20:27:27.742Z,99909
2018-05-09T20:32:39.683Z,99912
2018-05-09T20:37:31.183Z,99911
2018-05-09T20:42:22.671Z,99912
2018-05-09T20:47:14.193Z,99916
2018-05-09T20:52:05.718Z,99935
2018-05-09T20:56:57.248Z,99941
2018-05-09T21:01:48.805Z,99949
2018-05-09T21:06:40.330Z,99951
2018-05-09T21:11:31.943Z,99950
2018-05-09T21:16:23.535Z,99950
2018-05-09T21:21:15.784Z,99955
2018-05-09T21:26:08.057Z,99956
2018-05-09T21:30:59.541Z,99958
2018-05-09T21:35:51.053Z,99956
2018-05-09T21:40:42.574Z,99959
2018-05-09T21:45:34.058Z,99963
2018-05-09T21:50:25.553Z,99966
2018-05-09T21:55:17.096Z,99974
2018-05-09T22:00:08.593Z,99974
2018-05-09T22:05:00.081Z,99975
2018-05-09T22:09:51.556Z,99979
2018-05-09T22:14:43.091Z,99984
2018-05-09T22:19:34.601Z,99980
2018-05-09T22:24:26.827Z,99978
2018-05-09T22:29:18.355Z,99977
2018-05-09T22:34:09.842Z,99969
2018-05-09T22:39:01.383Z,99973
2018-05-09T22:43:52.944Z,99980
2018-05-09T22:48:44.492Z,99972
2018-05-09T22:53:36.039Z,99971
2018-05-09T22:58:27.510Z,99974
2018-05-09T23:03:19.030Z,99977
2018-05-09T23:08:11.277Z,99979
2018-05-09T23:13:03.538Z,99983
2018-05-09T23:17:55.768Z,99989
2018-05-09T23:22:48.012Z,99986
2018-05-09T23:27:39.503Z,99986
2018-05-09T23:32:31.044Z,99988
2018-05-09T23:37:22.549Z,99993
2018-05-09T23:42:14.046Z,99994
2018-05-09T23:47:05.562Z,99999
2018-05-09T23:51:57.062Z,100006
2018-05-09T23:56:48.568Z,100014
